Time;durP1;ratioP1;P1;durP2;ratioP2;P2;SDS_P1;SDS_P2;PMS_P1;PMS_P2;Temp;Humidity;BMP_temperature;BMP_pressure;BME280_temperature;BME280_humidity;BME280_pressure;Samples;Min_cycle;Max_cycle;Signal;HPM_P1;HPM_P2
2022/09/09 00:01:53;;;;;;;3.30;3.17;;;;;;;;;;5221059;28;20030;-81
2022/09/09 00:04:28;;;;;;;3.97;2.65;;;;;;;;;;5219644;28;20029;-81
2022/09/09 00:07:03;;;;;;;2.03;2.03;;;;;;;;;;5221128;28;20096;-81
2022/09/09 00:09:39;;;;;;;3.30;3.13;;;;;;;;;;5218585;28;20033;-81
2022/09/09 00:12:24;;;;;;;2.92;2.67;;;;;;;;;;5228489;23;20041;-66
2022/09/09 00:14:56;;;;;;;5.80;4.30;;;;;;;;;;5181015;28;20421;-65
2022/09/09 00:17:35;;;;;;;3.70;3.40;;;;;;;;;;5181277;28;20041;-66
2022/09/09 00:20:11;;;;;;;3.97;3.63;;;;;;;;;;5182523;28;20084;-66
2022/09/09 00:22:49;;;;;;;3.60;3.35;;;;;;;;;;5181409;28;20426;-65
2022/09/09 00:25:43;;;;;;;2.30;2.20;;;;;;;;;;5182208;28;20471;-65
2022/09/09 00:28:17;;;;;;;8.27;3.75;;;;;;;;;;5171555;28;20026;-65
2022/09/09 00:30:48;;;;;;;3.65;3.38;;;;;;;;;;5182323;28;20441;-65
2022/09/09 00:33:23;;;;;;;3.65;3.35;;;;;;;;;;5182249;28;20022;-66
2022/09/09 00:35:56;;;;;;;4.57;3.63;;;;;;;;;;5183108;28;20068;-66
2022/09/09 00:39:02;;;;;;;5.75;3.42;;;;;;;;;;5184436;28;20018;-66
2022/09/09 00:41:32;;;;;;;3.30;3.00;;;;;;;;;;5087211;29;20031;-65
2022/09/09 00:44:11;;;;;;;3.97;3.78;;;;;;;;;;5170955;28;20100;-66
2022/09/09 00:46:48;;;;;;;4.38;3.95;;;;;;;;;;5185130;28;20025;-65
2022/09/09 00:49:22;;;;;;;5.28;4.15;;;;;;;;;;5186587;28;20014;-66
2022/09/09 00:51:55;;;;;;;2.90;2.70;;;;;;;;;;5186150;28;20096;-66
2022/09/09 00:54:33;;;;;;;4.25;4.05;;;;;;;;;;5183591;28;20119;-65
2022/09/09 00:57:19;;;;;;;3.70;3.50;;;;;;;;;;5184164;28;20100;-65
2022/09/09 00:59:58;;;;;;;3.42;3.33;;;;;;;;;;5185492;28;20394;-65
2022/09/09 01:02:31;;;;;;;6.05;5.15;;;;;;;;;;5183964;28;20362;-66
2022/09/09 01:05:07;;;;;;;4.20;3.90;;;;;;;;;;5167595;28;20018;-65
2022/09/09 01:07:37;;;;;;;4.63;4.30;;;;;;;;;;5184952;28;20128;-65
2022/09/09 01:10:17;;;;;;;4.80;4.40;;;;;;;;;;5185299;28;20029;-65
2022/09/09 01:12:48;;;;;;;6.00;4.55;;;;;;;;;;5185450;28;20091;-66
2022/09/09 01:15:28;;;;;;;5.40;4.15;;;;;;;;;;5181052;28;20026;-64
2022/09/09 01:17:58;;;;;;;3.38;3.28;;;;;;;;;;5183649;28;20132;-65
2022/09/09 01:20:28;;;;;;;4.70;4.03;;;;;;;;;;5185297;28;20449;-64
2022/09/09 01:23:26;;;;;;;4.00;3.70;;;;;;;;;;5185283;28;20396;-64
2022/09/09 01:26:15;;;;;;;4.20;3.70;;;;;;;;;;5185515;28;20272;-65
2022/09/09 01:28:46;;;;;;;3.95;3.65;;;;;;;;;;5186789;28;20021;-65
2022/09/09 01:31:19;;;;;;;3.88;3.53;;;;;;;;;;5186264;28;20024;-66
2022/09/09 01:33:49;;;;;;;3.40;3.20;;;;;;;;;;5182383;28;20053;-66
2022/09/09 01:36:23;;;;;;;16.20;4.32;;;;;;;;;;5184168;28;20053;-66
2022/09/09 01:38:53;;;;;;;3.13;3.03;;;;;;;;;;5182543;28;20049;-66
2022/09/09 01:41:24;;;;;;;3.60;2.83;;;;;;;;;;5183754;28;20548;-66
2022/09/09 01:43:55;;;;;;;4.38;3.97;;;;;;;;;;5183059;28;20026;-65
2022/09/09 01:46:25;;;;;;;4.45;3.80;;;;;;;;;;5183477;28;20121;-66
2022/09/09 01:48:56;;;;;;;3.50;3.30;;;;;;;;;;5180795;28;20506;-66
2022/09/09 01:51:26;;;;;;;2.45;2.35;;;;;;;;;;5183646;28;20069;-66
2022/09/09 01:53:56;;;;;;;8.52;3.28;;;;;;;;;;5183222;28;20450;-66
2022/09/09 01:56:45;;;;;;;3.55;3.40;;;;;;;;;;5183790;28;20033;-66
2022/09/09 01:59:36;;;;;;;4.88;4.40;;;;;;;;;;5183581;28;20022;-66
2022/09/09 02:02:06;;;;;;;9.25;4.43;;;;;;;;;;5183856;28;20343;-69
2022/09/09 02:04:44;;;;;;;6.38;4.32;;;;;;;;;;5182064;28;20029;-66
2022/09/09 02:07:33;;;;;;;2.88;2.67;;;;;;;;;;5183203;28;20453;-66
2022/09/09 02:10:15;;;;;;;12.55;4.03;;;;;;;;;;5182871;28;20123;-66
2022/09/09 02:12:48;;;;;;;8.35;3.17;;;;;;;;;;5183564;28;20405;-66
2022/09/09 02:15:22;;;;;;;3.28;3.00;;;;;;;;;;5182637;28;20045;-66
2022/09/09 02:17:53;;;;;;;3.55;3.35;;;;;;;;;;5182863;28;20018;-66
2022/09/09 02:20:26;;;;;;;3.83;2.95;;;;;;;;;;5182853;28;20492;-66
2022/09/09 02:22:57;;;;;;;7.18;3.30;;;;;;;;;;5181838;28;20018;-66
2022/09/09 02:25:29;;;;;;;3.13;2.95;;;;;;;;;;5181452;28;20113;-67
2022/09/09 02:28:00;;;;;;;4.18;3.70;;;;;;;;;;5183531;28;20018;-66
2022/09/09 02:30:30;;;;;;;2.92;2.83;;;;;;;;;;5183285;28;20018;-66
2022/09/09 02:33:03;;;;;;;3.00;2.80;;;;;;;;;;5183580;28;20021;-66
2022/09/09 02:35:37;;;;;;;4.07;3.78;;;;;;;;;;5181892;28;20482;-66
2022/09/09 02:38:09;;;;;;;4.55;4.20;;;;;;;;;;5183511;28;20022;-67
2022/09/09 02:40:39;;;;;;;8.35;4.70;;;;;;;;;;5183433;28;20071;-66
2022/09/09 02:43:09;;;;;;;4.85;4.38;;;;;;;;;;5183687;28;20553;-67
2022/09/09 02:45:42;;;;;;;4.47;3.85;;;;;;;;;;5182813;28;20493;-65
2022/09/09 02:48:17;;;;;;;3.58;3.40;;;;;;;;;;5182892;28;20014;-65
2022/09/09 02:50:47;;;;;;;4.95;4.10;;;;;;;;;;5183021;28;20026;-66
2022/09/09 02:53:21;;;;;;;3.63;3.43;;;;;;;;;;5182371;28;20021;-66
2022/09/09 02:55:56;;;;;;;3.47;3.25;;;;;;;;;;5182361;28;20018;-65
2022/09/09 02:58:27;;;;;;;5.65;3.10;;;;;;;;;;5182227;28;20207;-66
2022/09/09 03:00:57;;;;;;;4.40;3.50;;;;;;;;;;5182769;28;20021;-66
2022/09/09 03:03:28;;;;;;;4.15;3.85;;;;;;;;;;5182747;28;20026;-66
2022/09/09 03:05:59;;;;;;;4.82;4.53;;;;;;;;;;5182544;28;20151;-66
2022/09/09 03:08:29;;;;;;;5.40;3.63;;;;;;;;;;5182267;28;20112;-66
2022/09/09 03:11:01;;;;;;;7.27;4.33;;;;;;;;;;5181682;28;20030;-66
2022/09/09 03:13:31;;;;;;;4.60;4.35;;;;;;;;;;5182639;28;20347;-66
2022/09/09 03:16:01;;;;;;;11.13;4.25;;;;;;;;;;5181113;28;20010;-65
2022/09/09 03:18:32;;;;;;;8.48;6.00;;;;;;;;;;5181208;28;20105;-66
2022/09/09 03:21:02;;;;;;;8.82;4.43;;;;;;;;;;5182397;28;20018;-66
2022/09/09 03:23:32;;;;;;;8.07;5.35;;;;;;;;;;5182269;28;20133;-66
2022/09/09 03:26:02;;;;;;;6.93;4.27;;;;;;;;;;5182613;28;20018;-66
2022/09/09 03:28:33;;;;;;;10.77;5.73;;;;;;;;;;5182556;28;20276;-66
2022/09/09 03:31:04;;;;;;;7.20;3.80;;;;;;;;;;5182946;28;20275;-66
2022/09/09 03:33:36;;;;;;;4.82;4.43;;;;;;;;;;5180802;28;20029;-66
2022/09/09 03:36:07;;;;;;;6.80;4.72;;;;;;;;;;5182799;28;20109;-66
2022/09/09 03:38:37;;;;;;;12.23;4.90;;;;;;;;;;5181846;28;20346;-67
2022/09/09 03:41:08;;;;;;;4.70;4.20;;;;;;;;;;5182642;28;20014;-66
2022/09/09 03:43:39;;;;;;;9.45;4.65;;;;;;;;;;5182238;28;20394;-66
2022/09/09 03:46:09;;;;;;;15.77;5.32;;;;;;;;;;5181482;28;20049;-66
2022/09/09 03:48:39;;;;;;;11.43;5.47;;;;;;;;;;5182531;28;20057;-66
2022/09/09 03:51:10;;;;;;;7.23;3.87;;;;;;;;;;5182483;28;20022;-66
2022/09/09 03:53:40;;;;;;;7.20;4.07;;;;;;;;;;5180351;28;20657;-67
2022/09/09 03:56:10;;;;;;;3.83;3.28;;;;;;;;;;5182490;28;20389;-65
2022/09/09 03:58:41;;;;;;;11.95;3.30;;;;;;;;;;5182590;28;20485;-67
2022/09/09 04:01:17;;;;;;;3.20;3.10;;;;;;;;;;5182512;28;20029;-66
2022/09/09 04:03:47;;;;;;;4.90;3.38;;;;;;;;;;5182105;28;20109;-69
2022/09/09 04:06:18;;;;;;;6.87;4.37;;;;;;;;;;5182629;28;20104;-66
2022/09/09 04:08:48;;;;;;;6.05;3.80;;;;;;;;;;5182267;28;20331;-66
2022/09/09 04:11:19;;;;;;;7.72;4.10;;;;;;;;;;5185604;28;20025;-66
2022/09/09 04:13:49;;;;;;;7.25;3.67;;;;;;;;;;5185390;28;20049;-66
2022/09/09 04:16:20;;;;;;;11.70;4.22;;;;;;;;;;5185925;28;20030;-65
2022/09/09 04:18:50;;;;;;;7.38;3.53;;;;;;;;;;5184465;28;20412;-66
2022/09/09 04:21:21;;;;;;;4.47;4.07;;;;;;;;;;5184615;28;20025;-65
2022/09/09 04:23:51;;;;;;;3.33;3.03;;;;;;;;;;5183976;28;20371;-65
2022/09/09 04:26:22;;;;;;;5.70;4.35;;;;;;;;;;5185453;28;20034;-65
2022/09/09 04:28:52;;;;;;;4.85;2.75;;;;;;;;;;5183880;28;20049;-65
2022/09/09 04:31:23;;;;;;;12.70;4.60;;;;;;;;;;5185187;28;20022;-66
2022/09/09 04:33:53;;;;;;;4.32;4.00;;;;;;;;;;5184405;28;20030;-66
2022/09/09 04:36:23;;;;;;;10.15;4.05;;;;;;;;;;5184972;28;20041;-66
2022/09/09 04:38:54;;;;;;;6.57;3.38;;;;;;;;;;5186314;28;20029;-66
2022/09/09 04:41:24;;;;;;;6.35;3.17;;;;;;;;;;5185048;28;20049;-66
2022/09/09 04:43:54;;;;;;;4.72;3.35;;;;;;;;;;5184303;28;20041;-66
2022/09/09 04:46:25;;;;;;;6.15;4.72;;;;;;;;;;5183452;28;20020;-66
2022/09/09 04:48:55;;;;;;;10.20;4.22;;;;;;;;;;5184885;28;20112;-66
2022/09/09 04:51:25;;;;;;;7.18;3.83;;;;;;;;;;5184644;28;20022;-66
2022/09/09 04:53:55;;;;;;;3.97;3.40;;;;;;;;;;5183931;28;20022;-65
2022/09/09 04:56:28;;;;;;;5.33;4.70;;;;;;;;;;5176401;28;20279;-66
2022/09/09 04:58:59;;;;;;;5.13;4.72;;;;;;;;;;5182822;28;20641;-66
2022/09/09 05:01:29;;;;;;;8.45;3.80;;;;;;;;;;5184599;28;20093;-67
2022/09/09 05:03:59;;;;;;;4.53;4.03;;;;;;;;;;5183781;28;20470;-68
2022/09/09 05:06:31;;;;;;;7.70;3.90;;;;;;;;;;5183580;28;20079;-66
2022/09/09 05:09:02;;;;;;;4.07;3.55;;;;;;;;;;5183904;28;20420;-66
2022/09/09 05:11:34;;;;;;;4.53;4.13;;;;;;;;;;5183784;28;20080;-67
2022/09/09 05:14:04;;;;;;;10.80;4.22;;;;;;;;;;5183407;28;20022;-66
2022/09/09 05:16:34;;;;;;;3.78;3.00;;;;;;;;;;5184156;28;20018;-67
2022/09/09 05:19:05;;;;;;;4.03;3.72;;;;;;;;;;5183607;28;20018;-66
2022/09/09 05:21:35;;;;;;;5.93;3.85;;;;;;;;;;5181000;28;20520;-66
2022/09/09 05:24:05;;;;;;;5.60;4.23;;;;;;;;;;5183083;28;20390;-66
2022/09/09 05:26:35;;;;;;;4.07;3.67;;;;;;;;;;5183936;28;20709;-66
2022/09/09 05:29:06;;;;;;;8.57;4.60;;;;;;;;;;5183442;28;20029;-66
2022/09/09 05:31:36;;;;;;;3.47;3.28;;;;;;;;;;5182765;28;20018;-67
2022/09/09 05:34:06;;;;;;;4.68;4.38;;;;;;;;;;5182237;28;20125;-67
2022/09/09 05:36:37;;;;;;;11.33;5.10;;;;;;;;;;5181576;28;20025;-67
2022/09/09 05:39:07;;;;;;;13.55;4.13;;;;;;;;;;5183409;28;20618;-67
2022/09/09 05:41:37;;;;;;;3.53;3.30;;;;;;;;;;5182956;28;20022;-67
2022/09/09 05:44:07;;;;;;;10.00;4.27;;;;;;;;;;5179441;28;20260;-66
2022/09/09 05:46:38;;;;;;;8.68;6.22;;;;;;;;;;5181089;28;20269;-69
2022/09/09 05:49:08;;;;;;;9.35;5.00;;;;;;;;;;5183171;28;20026;-66
2022/09/09 05:51:38;;;;;;;7.38;4.85;;;;;;;;;;5183341;28;20063;-66
2022/09/09 05:54:08;;;;;;;6.50;4.73;;;;;;;;;;5182656;28;20125;-66
2022/09/09 05:56:39;;;;;;;13.02;5.75;;;;;;;;;;5183241;28;20275;-66
2022/09/09 05:59:09;;;;;;;6.47;4.75;;;;;;;;;;5182954;28;20025;-67
2022/09/09 06:01:42;;;;;;;4.47;4.05;;;;;;;;;;5181660;28;20386;-67
2022/09/09 06:04:12;;;;;;;18.95;4.75;;;;;;;;;;5182511;28;20018;-68
2022/09/09 06:06:43;;;;;;;4.90;4.40;;;;;;;;;;5183271;28;20041;-67
2022/09/09 06:09:13;;;;;;;15.70;4.87;;;;;;;;;;5181796;28;20269;-67
2022/09/09 06:11:43;;;;;;;7.35;5.25;;;;;;;;;;5181725;28;20275;-67
2022/09/09 06:14:14;;;;;;;14.07;6.18;;;;;;;;;;5182999;28;20434;-67
2022/09/09 06:16:45;;;;;;;6.50;4.18;;;;;;;;;;5189009;23;20399;-65
2022/09/09 06:19:15;;;;;;;3.65;3.45;;;;;;;;;;5197473;28;20028;-65
2022/09/09 06:21:47;;;;;;;11.32;5.05;;;;;;;;;;5205605;28;20385;-67
2022/09/09 06:24:19;;;;;;;9.63;3.88;;;;;;;;;;5205007;28;20025;-65
2022/09/09 06:26:49;;;;;;;6.68;4.40;;;;;;;;;;5205059;28;20021;-66
2022/09/09 06:29:19;;;;;;;5.22;4.65;;;;;;;;;;5205325;28;20040;-65
2022/09/09 06:31:49;;;;;;;12.55;4.72;;;;;;;;;;5205054;28;20032;-65
2022/09/09 06:34:20;;;;;;;4.50;4.18;;;;;;;;;;5203721;28;20116;-65
2022/09/09 06:36:51;;;;;;;3.42;3.05;;;;;;;;;;5203298;28;20461;-65
2022/09/09 06:39:22;;;;;;;12.93;4.47;;;;;;;;;;5205112;28;20083;-66
2022/09/09 06:41:53;;;;;;;6.85;4.53;;;;;;;;;;5203452;28;20009;-66
2022/09/09 06:44:23;;;;;;;5.03;4.53;;;;;;;;;;5202852;28;20052;-65
2022/09/09 06:46:53;;;;;;;6.63;4.25;;;;;;;;;;5200522;28;20023;-65
2022/09/09 06:49:24;;;;;;;5.72;5.10;;;;;;;;;;5203645;28;20021;-66
2022/09/09 06:51:54;;;;;;;8.15;5.68;;;;;;;;;;5203392;28;20043;-64
2022/09/09 06:54:25;;;;;;;7.90;4.40;;;;;;;;;;5204156;28;20323;-65
2022/09/09 06:56:55;;;;;;;7.72;5.15;;;;;;;;;;5204459;28;20018;-65
2022/09/09 06:59:26;;;;;;;3.95;3.55;;;;;;;;;;5201788;28;20014;-65
2022/09/09 07:01:56;;;;;;;6.43;3.35;;;;;;;;;;5203348;28;20028;-65
2022/09/09 07:04:27;;;;;;;7.47;4.68;;;;;;;;;;5201049;28;20037;-65
2022/09/09 07:06:58;;;;;;;9.20;4.93;;;;;;;;;;5204364;28;20114;-65
2022/09/09 07:09:29;;;;;;;4.32;2.97;;;;;;;;;;5203441;28;20272;-64
2022/09/09 07:12:00;;;;;;;5.53;3.67;;;;;;;;;;5204078;28;20028;-64
2022/09/09 07:14:30;;;;;;;12.18;3.40;;;;;;;;;;5203286;28;20027;-64
2022/09/09 07:17:00;;;;;;;9.57;3.17;;;;;;;;;;5202876;28;20033;-64
2022/09/09 07:19:30;;;;;;;12.43;3.33;;;;;;;;;;5204288;28;20627;-64
2022/09/09 07:22:02;;;;;;;4.90;4.43;;;;;;;;;;5203457;28;20343;-65
2022/09/09 07:24:32;;;;;;;3.10;3.00;;;;;;;;;;5203539;28;20317;-65
2022/09/09 07:27:03;;;;;;;7.47;3.67;;;;;;;;;;5204183;28;20025;-65
2022/09/09 07:29:33;;;;;;;8.38;5.20;;;;;;;;;;5203953;28;20260;-64
2022/09/09 07:32:04;;;;;;;2.50;2.30;;;;;;;;;;5202928;28;20384;-65
2022/09/09 07:34:34;;;;;;;10.90;3.92;;;;;;;;;;5202302;28;20708;-64
2022/09/09 07:37:05;;;;;;;11.35;4.38;;;;;;;;;;5202730;28;20469;-64
2022/09/09 07:39:35;;;;;;;8.38;2.83;;;;;;;;;;5203799;28;20028;-64
2022/09/09 07:42:05;;;;;;;3.00;2.80;;;;;;;;;;5203874;28;20013;-65
2022/09/09 07:44:36;;;;;;;4.05;3.80;;;;;;;;;;5202860;28;20272;-64
2022/09/09 07:47:06;;;;;;;5.93;3.53;;;;;;;;;;5203628;28;20079;-63
2022/09/09 07:49:36;;;;;;;9.15;3.75;;;;;;;;;;5203603;28;20026;-63
2022/09/09 07:52:07;;;;;;;3.97;3.00;;;;;;;;;;5202741;28;20022;-64
2022/09/09 07:54:37;;;;;;;10.02;4.45;;;;;;;;;;5203226;28;20272;-64
2022/09/09 07:57:09;;;;;;;3.90;2.83;;;;;;;;;;5204141;28;20465;-63
2022/09/09 07:59:39;;;;;;;5.30;3.20;;;;;;;;;;5203447;28;20017;-63
2022/09/09 08:02:09;;;;;;;10.02;3.33;;;;;;;;;;5203417;28;20256;-63
2022/09/09 08:04:40;;;;;;;6.20;3.20;;;;;;;;;;5202865;28;20021;-63
2022/09/09 08:07:10;;;;;;;11.48;4.22;;;;;;;;;;5203381;28;20028;-64
2022/09/09 08:09:40;;;;;;;7.13;3.72;;;;;;;;;;5201743;28;20021;-62
2022/09/09 08:12:12;;;;;;;6.55;2.90;;;;;;;;;;5203560;28;20025;-64
2022/09/09 08:14:43;;;;;;;4.75;3.03;;;;;;;;;;5202902;28;20018;-64
2022/09/09 08:17:13;;;;;;;13.67;4.77;;;;;;;;;;5203089;28;20099;-63
2022/09/09 08:19:44;;;;;;;8.13;3.83;;;;;;;;;;5203386;28;20255;-63
2022/09/09 08:22:14;;;;;;;7.32;3.20;;;;;;;;;;5203631;28;20017;-63
2022/09/09 08:24:44;;;;;;;5.47;3.77;;;;;;;;;;5202583;28;20397;-63
2022/09/09 08:27:14;;;;;;;3.37;3.13;;;;;;;;;;5202835;28;20739;-64
2022/09/09 08:29:45;;;;;;;3.03;2.70;;;;;;;;;;5201946;28;20279;-64
2022/09/09 08:32:16;;;;;;;3.27;2.97;;;;;;;;;;5203105;28;20426;-64
2022/09/09 08:34:47;;;;;;;5.90;2.70;;;;;;;;;;5202520;28;20276;-64
2022/09/09 08:37:19;;;;;;;9.13;3.88;;;;;;;;;;5203461;28;20013;-62
2022/09/09 08:39:50;;;;;;;7.00;4.72;;;;;;;;;;5201405;28;20429;-63
2022/09/09 08:42:26;;;;;;;4.40;3.15;;;;;;;;;;5203271;28;20010;-63
2022/09/09 08:45:11;;;;;;;6.57;3.33;;;;;;;;;;5202613;28;20025;-64
2022/09/09 08:47:49;;;;;;;7.53;4.20;;;;;;;;;;5203068;28;20047;-64
2022/09/09 08:50:24;;;;;;;7.57;3.40;;;;;;;;;;5203127;28;20108;-64
2022/09/09 08:53:17;;;;;;;4.03;3.25;;;;;;;;;;5202977;28;20120;-63
2022/09/09 08:55:49;;;;;;;10.05;3.22;;;;;;;;;;5194696;28;20448;-63
2022/09/09 08:58:19;;;;;;;12.75;3.60;;;;;;;;;;5205978;28;20148;-64
2022/09/09 09:01:08;;;;;;;10.27;3.88;;;;;;;;;;5206356;28;20533;-63
2022/09/09 09:03:56;;;;;;;7.50;5.43;;;;;;;;;;5207067;28;20394;-63
2022/09/09 09:06:30;;;;;;;2.77;2.53;;;;;;;;;;5207432;28;20041;-63
2022/09/09 09:09:00;;;;;;;4.05;3.75;;;;;;;;;;5207118;28;20057;-62
2022/09/09 09:11:43;;;;;;;3.67;3.37;;;;;;;;;;5207244;28;20160;-65
2022/09/09 09:14:24;;;;;;;2.85;2.47;;;;;;;;;;5205078;28;20307;-63
2022/09/09 09:16:58;;;;;;;7.40;4.82;;;;;;;;;;5206528;28;20029;-64
2022/09/09 09:19:29;;;;;;;3.72;3.38;;;;;;;;;;5206586;28;20016;-63
2022/09/09 09:22:03;;;;;;;3.47;3.17;;;;;;;;;;5205488;28;20017;-63
2022/09/09 09:24:39;;;;;;;3.55;3.25;;;;;;;;;;5204832;28;20026;-64
2022/09/09 09:27:25;;;;;;;3.78;3.20;;;;;;;;;;5206857;28;20021;-64
2022/09/09 09:29:58;;;;;;;9.27;3.22;;;;;;;;;;5206574;28;20595;-63
2022/09/09 09:32:31;;;;;;;4.32;3.88;;;;;;;;;;5206192;28;20060;-63
2022/09/09 09:35:04;;;;;;;5.07;3.28;;;;;;;;;;5205697;28;20083;-62
2022/09/09 09:37:34;;;;;;;6.35;4.53;;;;;;;;;;5205380;28;20018;-62
2022/09/09 09:40:23;;;;;;;7.88;2.92;;;;;;;;;;5205913;28;20067;-62
2022/09/09 09:42:57;;;;;;;4.57;2.75;;;;;;;;;;5205936;28;20026;-62
2022/09/09 09:45:41;;;;;;;12.05;4.35;;;;;;;;;;5204982;28;20493;-62
2022/09/09 09:48:13;;;;;;;8.93;4.32;;;;;;;;;;5205610;28;20097;-62
2022/09/09 09:50:56;;;;;;;8.50;2.88;;;;;;;;;;5204648;28;20037;-61
2022/09/09 09:53:28;;;;;;;5.25;3.88;;;;;;;;;;5205064;28;20021;-63
2022/09/09 09:56:16;;;;;;;5.63;3.00;;;;;;;;;;5204366;28;20465;-63
2022/09/09 09:58:51;;;;;;;4.93;3.53;;;;;;;;;;5204100;28;20021;-63
2022/09/09 10:01:26;;;;;;;4.55;4.20;;;;;;;;;;5205983;28;20044;-63
2022/09/09 10:03:58;;;;;;;6.70;3.53;;;;;;;;;;5205073;28;20029;-63
2022/09/09 10:06:33;;;;;;;4.25;3.65;;;;;;;;;;5205564;28;20045;-63
2022/09/09 10:09:17;;;;;;;6.85;4.70;;;;;;;;;;5205548;28;20552;-63
2022/09/09 10:12:03;;;;;;;12.40;3.38;;;;;;;;;;5205256;28;20076;-63
2022/09/09 10:14:42;;;;;;;5.18;3.42;;;;;;;;;;5204721;28;20056;-64
2022/09/09 10:17:27;;;;;;;3.75;3.47;;;;;;;;;;5205087;28;20025;-64
2022/09/09 10:20:10;;;;;;;6.40;4.22;;;;;;;;;;5203780;28;20055;-63
2022/09/09 10:22:45;;;;;;;2.67;2.45;;;;;;;;;;5205362;28;20037;-64
2022/09/09 10:25:25;;;;;;;2.33;2.25;;;;;;;;;;5204474;28;20022;-64
2022/09/09 10:28:18;;;;;;;2.25;2.15;;;;;;;;;;5204436;28;20057;-65
2022/09/09 10:30:57;;;;;;;3.65;3.30;;;;;;;;;;5203441;28;20096;-65
2022/09/09 10:33:43;;;;;;;6.65;5.15;;;;;;;;;;5204319;28;20033;-65
2022/09/09 10:36:18;;;;;;;3.35;3.00;;;;;;;;;;5205389;28;20021;-66
2022/09/09 10:38:53;;;;;;;2.40;2.28;;;;;;;;;;5205481;28;20025;-66
2022/09/09 10:41:33;;;;;;;4.80;3.35;;;;;;;;;;5203579;28;20485;-66
2022/09/09 10:44:18;;;;;;;3.53;3.20;;;;;;;;;;5204101;28;20018;-66
2022/09/09 10:46:51;;;;;;;9.65;3.55;;;;;;;;;;5204497;28;20029;-65
2022/09/09 10:49:27;;;;;;;6.95;3.55;;;;;;;;;;5204580;28;20036;-65
2022/09/09 10:52:13;;;;;;;3.58;3.17;;;;;;;;;;5203142;28;20021;-66
2022/09/09 10:55:02;;;;;;;3.00;2.67;;;;;;;;;;5204249;28;20116;-65
2022/09/09 10:57:32;;;;;;;7.40;4.20;;;;;;;;;;5205157;28;20339;-66
2022/09/09 11:00:07;;;;;;;5.13;2.87;;;;;;;;;;5203411;28;20260;-65
2022/09/09 11:02:41;;;;;;;7.32;2.63;;;;;;;;;;5203192;28;20269;-65
2022/09/09 11:05:18;;;;;;;3.97;3.63;;;;;;;;;;5204365;28;20013;-66
2022/09/09 11:08:00;;;;;;;4.85;3.03;;;;;;;;;;5204176;28;20025;-65
2022/09/09 11:10:30;;;;;;;2.92;2.60;;;;;;;;;;5205126;28;20052;-64
2022/09/09 11:13:03;;;;;;;10.50;3.80;;;;;;;;;;5205171;28;20450;-65
2022/09/09 11:15:43;;;;;;;3.47;3.13;;;;;;;;;;5204514;28;20772;-65
2022/09/09 11:18:17;;;;;;;3.72;2.53;;;;;;;;;;5203377;28;20120;-65
2022/09/09 11:20:48;;;;;;;4.07;3.45;;;;;;;;;;5204079;28;20088;-65
2022/09/09 11:23:23;;;;;;;3.53;3.33;;;;;;;;;;5204403;28;20496;-65
2022/09/09 11:25:57;;;;;;;2.40;2.30;;;;;;;;;;5204482;28;20013;-65
2022/09/09 11:28:36;;;;;;;11.13;4.13;;;;;;;;;;5202595;28;20083;-64
2022/09/09 11:31:26;;;;;;;20.88;3.85;;;;;;;;;;5204766;28;20029;-64
2022/09/09 11:34:02;;;;;;;2.55;2.45;;;;;;;;;;5203907;28;20021;-64
2022/09/09 11:36:38;;;;;;;4.10;2.85;;;;;;;;;;5204376;28;20067;-64
2022/09/09 11:39:14;;;;;;;4.20;3.63;;;;;;;;;;5204275;28;20470;-63
2022/09/09 11:41:44;;;;;;;3.05;2.80;;;;;;;;;;5203965;28;20057;-64
2022/09/09 11:44:23;;;;;;;5.20;3.88;;;;;;;;;;5203490;28;20049;-64
2022/09/09 11:46:53;;;;;;;3.50;3.30;;;;;;;;;;5203209;28;20028;-65
2022/09/09 11:49:42;;;;;;;5.75;3.10;;;;;;;;;;5204154;28;20096;-64
2022/09/09 11:52:25;;;;;;;3.70;3.50;;;;;;;;;;5204326;28;20029;-65
2022/09/09 11:54:56;;;;;;;1.90;1.90;;;;;;;;;;5203499;28;20032;-64
2022/09/09 11:57:34;;;;;;;2.30;2.10;;;;;;;;;;5203661;28;20021;-63
2022/09/09 12:00:05;;;;;;;5.55;3.47;;;;;;;;;;5203857;28;20108;-65
2022/09/09 12:02:36;;;;;;;3.03;2.78;;;;;;;;;;5204191;28;20096;-64
2022/09/09 12:05:13;;;;;;;4.05;3.67;;;;;;;;;;5203343;28;20037;-64
2022/09/09 12:07:47;;;;;;;3.28;3.03;;;;;;;;;;5202439;28;20029;-64
2022/09/09 12:10:29;;;;;;;4.78;3.22;;;;;;;;;;5203745;28;20488;-64
2022/09/09 12:13:09;;;;;;;2.58;2.35;;;;;;;;;;5204158;28;20481;-64
2022/09/09 12:15:46;;;;;;;4.32;2.25;;;;;;;;;;5203285;28;20032;-65
2022/09/09 12:18:36;;;;;;;2.30;1.98;;;;;;;;;;5216123;22;20328;-67
2022/09/09 12:21:12;;;;;;;3.15;2.50;;;;;;;;;;5201244;28;20017;-67
2022/09/09 12:24:11;;;;;;;5.00;2.95;;;;;;;;;;5201214;28;20018;-67
2022/09/09 12:26:51;;;;;;;2.33;2.03;;;;;;;;;;5188366;28;20254;-66
2022/09/09 12:29:28;;;;;;;5.07;1.48;;;;;;;;;;5201735;28;20014;-68
2022/09/09 12:32:25;;;;;;;1.98;1.88;;;;;;;;;;5204591;28;20334;-67
2022/09/09 12:35:20;;;;;;;5.47;2.58;;;;;;;;;;5202355;28;20448;-66
2022/09/09 12:37:58;;;;;;;2.03;1.90;;;;;;;;;;5205068;28;20014;-67
2022/09/09 12:40:31;;;;;;;4.40;1.90;;;;;;;;;;5205302;28;20469;-66
2022/09/09 12:43:21;;;;;;;2.15;2.03;;;;;;;;;;5205363;28;20044;-67
2022/09/09 12:45:57;;;;;;;2.15;2.03;;;;;;;;;;5203339;28;20125;-67
2022/09/09 12:48:33;;;;;;;1.58;1.55;;;;;;;;;;5205584;28;20064;-67
2022/09/09 12:51:05;;;;;;;7.95;2.65;;;;;;;;;;5205130;28;20370;-67
2022/09/09 12:53:36;;;;;;;2.28;2.17;;;;;;;;;;5203441;28;20036;-67
2022/09/09 12:56:08;;;;;;;5.20;1.73;;;;;;;;;;5204228;28;20013;-67
2022/09/09 12:58:40;;;;;;;2.35;2.15;;;;;;;;;;5205440;28;20013;-66
2022/09/09 13:01:18;;;;;;;3.30;2.03;;;;;;;;;;5205810;28;20136;-67
2022/09/09 13:03:48;;;;;;;2.30;2.03;;;;;;;;;;5205037;28;20028;-67
2022/09/09 13:06:23;;;;;;;1.60;1.58;;;;;;;;;;5204983;28;20017;-66
2022/09/09 13:08:54;;;;;;;5.97;2.70;;;;;;;;;;5204945;28;20021;-67
2022/09/09 13:11:24;;;;;;;2.30;1.88;;;;;;;;;;5205195;28;20018;-67
2022/09/09 13:13:55;;;;;;;2.17;2.00;;;;;;;;;;5203223;28;20102;-67
2022/09/09 13:16:31;;;;;;;7.20;3.03;;;;;;;;;;5204792;28;20628;-68
2022/09/09 13:19:06;;;;;;;4.22;2.22;;;;;;;;;;5203589;28;20021;-68
2022/09/09 13:21:38;;;;;;;5.45;3.78;;;;;;;;;;5204736;28;20100;-67
2022/09/09 13:24:28;;;;;;;7.10;2.20;;;;;;;;;;5204056;28;20021;-66
2022/09/09 13:27:01;;;;;;;2.35;2.25;;;;;;;;;;5203193;28;20424;-68
2022/09/09 13:29:32;;;;;;;3.35;2.53;;;;;;;;;;5204566;28;20022;-68
2022/09/09 13:32:07;;;;;;;2.20;2.10;;;;;;;;;;5202776;28;20068;-68
2022/09/09 13:34:37;;;;;;;2.50;2.40;;;;;;;;;;5202373;28;20036;-67
2022/09/09 13:37:23;;;;;;;6.20;2.30;;;;;;;;;;5199310;28;20092;-67
2022/09/09 13:39:54;;;;;;;3.28;2.20;;;;;;;;;;5202119;28;20075;-67
2022/09/09 13:42:29;;;;;;;3.22;2.30;;;;;;;;;;5201784;28;20018;-67
2022/09/09 13:44:59;;;;;;;2.05;1.95;;;;;;;;;;5205514;28;20485;-67
2022/09/09 13:47:34;;;;;;;2.90;2.70;;;;;;;;;;5205821;28;20077;-67
2022/09/09 13:50:23;;;;;;;2.67;1.75;;;;;;;;;;5205967;28;20053;-71
2022/09/09 13:52:54;;;;;;;2.33;2.10;;;;;;;;;;5211334;28;20026;-66
2022/09/09 13:55:26;;;;;;;6.35;2.03;;;;;;;;;;5204824;28;20028;-68
2022/09/09 13:57:57;;;;;;;7.43;3.13;;;;;;;;;;5206709;28;20052;-67
2022/09/09 14:00:29;;;;;;;3.13;1.88;;;;;;;;;;5205445;28;20017;-67
2022/09/09 14:03:01;;;;;;;6.90;2.95;;;;;;;;;;5205312;28;20477;-67
2022/09/09 14:05:32;;;;;;;4.57;2.75;;;;;;;;;;5204346;28;20093;-66
2022/09/09 14:08:06;;;;;;;2.03;1.83;;;;;;;;;;5204165;28;20071;-67
2022/09/09 14:10:36;;;;;;;2.53;2.33;;;;;;;;;;5203778;28;20025;-68
2022/09/09 14:13:08;;;;;;;3.13;2.88;;;;;;;;;;5204507;28;20027;-67
2022/09/09 14:15:38;;;;;;;2.33;2.17;;;;;;;;;;5203090;28;20025;-68
2022/09/09 14:18:13;;;;;;;2.00;1.85;;;;;;;;;;5204853;28;20523;-65
2022/09/09 14:20:43;;;;;;;5.57;2.47;;;;;;;;;;5203602;28;20118;-67
2022/09/09 14:23:15;;;;;;;1.83;1.48;;;;;;;;;;5203872;28;20068;-68
2022/09/09 14:25:46;;;;;;;2.40;2.20;;;;;;;;;;5204245;28;20029;-66
2022/09/09 14:28:16;;;;;;;2.10;2.00;;;;;;;;;;5205133;28;20040;-70
2022/09/09 14:30:47;;;;;;;2.38;1.85;;;;;;;;;;5206104;28;20021;-66
2022/09/09 14:33:17;;;;;;;2.47;1.83;;;;;;;;;;5206211;28;20541;-64
2022/09/09 14:35:48;;;;;;;6.27;2.23;;;;;;;;;;5204385;28;20477;-67
2022/09/09 14:38:18;;;;;;;4.47;1.60;;;;;;;;;;5204170;28;20037;-65
2022/09/09 14:40:49;;;;;;;4.97;2.10;;;;;;;;;;5202226;28;20381;-69
2022/09/09 14:43:20;;;;;;;3.13;2.27;;;;;;;;;;5203811;28;20256;-66
2022/09/09 14:45:51;;;;;;;4.00;2.17;;;;;;;;;;5202565;28;20351;-65
2022/09/09 14:48:21;;;;;;;4.30;3.28;;;;;;;;;;5203530;28;20025;-66
2022/09/09 14:50:51;;;;;;;2.95;2.00;;;;;;;;;;5203614;28;20021;-68
2022/09/09 14:53:21;;;;;;;3.00;2.07;;;;;;;;;;5201927;28;20040;-68
2022/09/09 14:55:52;;;;;;;3.47;2.17;;;;;;;;;;5203936;28;20345;-66
2022/09/09 14:58:22;;;;;;;5.27;2.37;;;;;;;;;;5206235;28;20028;-66
2022/09/09 15:00:52;;;;;;;3.33;2.73;;;;;;;;;;5204346;28;20263;-65
2022/09/09 15:03:23;;;;;;;2.28;2.05;;;;;;;;;;5205811;28;20260;-65
2022/09/09 15:05:53;;;;;;;5.65;2.38;;;;;;;;;;5206348;28;20021;-65
2022/09/09 15:08:24;;;;;;;1.58;1.50;;;;;;;;;;5205906;28;20017;-66
2022/09/09 15:11:01;;;;;;;2.55;2.13;;;;;;;;;;5204885;28;20683;-66
2022/09/09 15:13:31;;;;;;;2.58;2.47;;;;;;;;;;5205830;28;20125;-66
2022/09/09 15:16:05;;;;;;;2.45;1.95;;;;;;;;;;5206236;28;20025;-67
2022/09/09 15:18:36;;;;;;;1.90;1.80;;;;;;;;;;5205357;28;20039;-66
2022/09/09 15:21:06;;;;;;;1.88;1.77;;;;;;;;;;5205592;28;20069;-67